Time;durP1;ratioP1;P1;durP2;ratioP2;P2;SDS_P1;SDS_P2;PMS_P1;PMS_P2;Temp;Humidity;BMP_temperature;BMP_pressure;BME280_temperature;BME280_humidity;BME280_pressure;Samples;Min_cycle;Max_cycle;Signal;HPM_P1;HPM_P2
2022/05/02 00:00:29;;;;;;;17.52;11.38;;;8.00;96.60;;;;;;4998062;28;20053;-76
2022/05/02 00:02:54;;;;;;;16.73;11.68;;;7.90;99.90;;;;;;4986045;28;20026;-76
2022/05/02 00:05:20;;;;;;;18.73;11.77;;;7.90;99.90;;;;;;4964721;28;20030;-76
2022/05/02 00:07:46;;;;;;;15.10;11.13;;;8.10;96.70;;;;;;4988495;28;20478;-76
2022/05/02 00:10:11;;;;;;;18.40;11.40;;;8.20;94.60;;;;;;5001156;28;20485;-76
2022/05/02 00:12:37;;;;;;;14.98;11.88;;;8.20;96.80;;;;;;5001762;28;20050;-76
2022/05/02 00:15:03;;;;;;;14.18;11.45;;;8.00;99.90;;;;;;4988507;28;20312;-76
2022/05/02 00:20:13;;;;;;;21.67;12.98;;;8.10;95.90;;;;;;4997860;28;20046;-76
2022/05/02 00:22:40;;;;;;;15.43;11.85;;;8.10;99.00;;;;;;4986070;28;20353;-76
2022/05/02 00:25:06;;;;;;;16.23;12.00;;;7.80;99.90;;;;;;4981253;28;20030;-76
2022/05/02 00:27:31;;;;;;;17.77;12.35;;;7.70;99.90;;;;;;4983607;28;20176;-76
2022/05/02 00:29:57;;;;;;;18.15;12.05;;;7.60;99.90;;;;;;4999855;28;20105;-76
2022/05/02 00:32:22;;;;;;;21.42;13.07;;;7.50;99.90;;;;;;5001031;28;20034;-76
2022/05/02 00:34:48;;;;;;;20.15;13.35;;;7.60;99.90;;;;;;4984436;28;20504;-76
2022/05/02 00:37:15;;;;;;;21.80;12.40;;;7.60;99.90;;;;;;4988078;28;20101;-75
2022/05/02 00:39:41;;;;;;;15.18;10.77;;;7.50;99.90;;;;;;5001623;28;20394;-75
2022/05/02 00:42:07;;;;;;;16.95;10.95;;;7.50;99.90;;;;;;4997358;28;20029;-76
2022/05/02 00:44:32;;;;;;;12.13;9.70;;;7.70;98.80;;;;;;4995503;28;20038;-76
2022/05/02 00:46:58;;;;;;;20.35;12.45;;;7.80;97.40;;;;;;4982061;28;20473;-76
2022/05/02 00:49:23;;;;;;;11.93;8.07;;;7.90;96.20;;;;;;4997533;28;20030;-75
2022/05/02 00:51:49;;;;;;;13.90;10.98;;;7.90;95.90;;;;;;5017802;28;20045;-76
2022/05/02 00:54:14;;;;;;;15.13;10.50;;;7.80;95.40;;;;;;4997761;28;20038;-76
2022/05/02 00:56:40;;;;;;;15.50;11.10;;;7.70;94.80;;;;;;4961861;28;20377;-76
2022/05/02 00:59:06;;;;;;;15.75;10.85;;;7.50;94.80;;;;;;5001094;28;20124;-75
2022/05/02 01:01:32;;;;;;;15.88;11.07;;;7.30;99.90;;;;;;4998101;28;20593;-76
2022/05/02 01:03:57;;;;;;;16.95;12.95;;;7.00;99.90;;;;;;4996553;28;20076;-75
2022/05/02 01:09:07;;;;;;;20.50;12.85;;;6.90;99.90;;;;;;4999404;28;20657;-75
2022/05/02 01:11:33;;;;;;;18.52;11.88;;;6.80;99.90;;;;;;4998326;28;20042;-75
2022/05/02 01:13:58;;;;;;;16.20;11.98;;;6.90;99.90;;;;;;4996032;28;20034;-75
2022/05/02 01:16:26;;;;;;;18.10;12.52;;;7.00;99.90;;;;;;4983927;28;20039;-75
2022/05/02 01:18:53;;;;;;;14.35;11.23;;;7.10;99.90;;;;;;4981774;28;20053;-75
2022/05/02 01:21:24;;;;;;;17.50;12.07;;;7.20;99.80;;;;;;4981119;28;20092;-76
2022/05/02 01:23:53;;;;;;;16.38;12.10;;;7.20;99.60;;;;;;4983103;28;20046;-75
2022/05/02 01:26:19;;;;;;;18.02;11.63;;;7.10;99.90;;;;;;4999858;28;20140;-75
2022/05/02 01:28:49;;;;;;;15.38;12.02;;;7.10;99.10;;;;;;4998667;28;20121;-75
2022/05/02 01:31:15;;;;;;;17.00;14.05;;;7.00;98.10;;;;;;4993995;28;20034;-75
2022/05/02 01:33:41;;;;;;;18.17;12.43;;;6.80;99.90;;;;;;4991359;28;20046;-77
2022/05/02 01:36:07;;;;;;;19.45;13.52;;;6.70;99.90;;;;;;4961080;28;20081;-77
2022/05/02 01:38:33;;;;;;;18.77;13.15;;;6.50;99.90;;;;;;4992498;28;20475;-77
2022/05/02 01:40:59;;;;;;;16.52;13.25;;;6.40;99.90;;;;;;4998437;28;20026;-77
2022/05/02 01:43:25;;;;;;;18.23;13.32;;;6.30;99.90;;;;;;4994372;28;20034;-77
2022/05/02 01:45:50;;;;;;;18.20;13.75;;;6.20;99.90;;;;;;4999650;28;20088;-77
2022/05/02 01:48:16;;;;;;;19.73;14.30;;;6.20;99.90;;;;;;4995313;28;20065;-77
2022/05/02 01:50:42;;;;;;;19.90;13.80;;;6.20;99.90;;;;;;4980223;28;20109;-77
2022/05/02 01:53:07;;;;;;;16.90;12.55;;;6.30;99.90;;;;;;4979006;28;20062;-77
2022/05/02 01:55:33;;;;;;;16.65;12.35;;;6.60;99.90;;;;;;4965740;28;20117;-77
2022/05/02 01:57:58;;;;;;;16.35;11.45;;;6.70;99.90;;;;;;4997049;28;20647;-77
2022/05/02 02:00:24;;;;;;;18.77;12.25;;;6.70;99.90;;;;;;4997039;28;20030;-77
2022/05/02 02:02:49;;;;;;;17.13;12.15;;;6.70;99.90;;;;;;4996060;28;20034;-77
2022/05/02 02:07:59;;;;;;;21.88;13.80;;;6.50;99.90;;;;;;4996114;28;20527;-77
2022/05/02 02:10:24;;;;;;;18.15;13.52;;;6.40;99.90;;;;;;4994506;28;20129;-77
2022/05/02 02:12:50;;;;;;;22.75;13.52;;;6.30;99.90;;;;;;4979694;28;20026;-77
2022/05/02 02:15:15;;;;;;;19.15;13.00;;;6.30;99.90;;;;;;4996564;28;20030;-77
2022/05/02 02:17:41;;;;;;;17.95;13.85;;;6.30;99.90;;;;;;4981527;28;20053;-77
2022/05/02 02:20:08;;;;;;;20.40;13.52;;;6.30;99.90;;;;;;4986374;28;20041;-77
2022/05/02 02:22:33;;;;;;;21.48;14.15;;;6.20;99.90;;;;;;4997452;28;20034;-77
2022/05/02 02:24:59;;;;;;;17.88;14.18;;;6.10;99.90;;;;;;4996353;28;20113;-77
2022/05/02 02:27:24;;;;;;;18.98;13.32;;;6.10;99.90;;;;;;4983326;28;20026;-77
2022/05/02 02:29:50;;;;;;;23.63;16.20;;;6.00;99.90;;;;;;4981871;28;20393;-77
2022/05/02 02:32:15;;;;;;;21.25;14.07;;;6.00;99.90;;;;;;4995880;28;20057;-77
2022/05/02 02:34:41;;;;;;;16.83;13.15;;;6.00;99.90;;;;;;4999534;28;20037;-77
2022/05/02 02:37:06;;;;;;;21.17;12.95;;;6.00;99.90;;;;;;4997442;28;20037;-77
2022/05/02 02:39:32;;;;;;;21.63;14.05;;;6.10;99.90;;;;;;4995341;28;20034;-77
2022/05/02 02:41:58;;;;;;;20.13;14.18;;;6.10;99.90;;;;;;4994509;28;20033;-77
2022/05/02 02:44:24;;;;;;;20.73;15.05;;;6.00;99.90;;;;;;4986575;28;20026;-77
2022/05/02 02:46:49;;;;;;;18.52;14.48;;;5.80;99.90;;;;;;4983510;28;20496;-77
2022/05/02 02:49:15;;;;;;;19.38;14.70;;;5.70;99.90;;;;;;4959357;28;20045;-77
2022/05/02 02:51:40;;;;;;;20.90;14.23;;;5.70;99.90;;;;;;4999196;28;20053;-76
2022/05/02 02:54:06;;;;;;;23.02;14.95;;;6.00;99.90;;;;;;4980646;28;20037;-75
2022/05/02 02:56:31;;;;;;;20.15;15.70;;;6.00;99.90;;;;;;4995384;28;20034;-75
2022/05/02 02:58:57;;;;;;;20.38;14.32;;;5.90;99.90;;;;;;4997751;28;20069;-77
2022/05/02 03:01:22;;;;;;;22.88;14.68;;;6.10;99.90;;;;;;4986260;28;20176;-77
2022/05/02 03:03:48;;;;;;;22.15;15.10;;;6.10;99.90;;;;;;4997461;28;20030;-77
2022/05/02 03:06:13;;;;;;;24.00;15.93;;;6.00;99.90;;;;;;4981103;28;20030;-77
2022/05/02 03:08:40;;;;;;;20.58;14.57;;;6.00;99.90;;;;;;4995157;28;20030;-77
2022/05/02 03:11:06;;;;;;;21.73;15.48;;;6.10;99.90;;;;;;4992867;28;20393;-77
2022/05/02 03:13:31;;;;;;;20.52;14.70;;;6.10;99.90;;;;;;5011014;28;20035;-77
2022/05/02 03:15:57;;;;;;;17.50;13.88;;;6.10;99.90;;;;;;4984837;28;20366;-77
2022/05/02 03:18:23;;;;;;;19.13;14.07;;;6.10;99.90;;;;;;4982755;28;20095;-77
2022/05/02 03:20:48;;;;;;;22.35;14.52;;;6.10;99.90;;;;;;5000903;28;20429;-77
2022/05/02 03:23:14;;;;;;;17.77;14.10;;;6.00;99.90;;;;;;4981350;28;20036;-77
2022/05/02 03:25:39;;;;;;;19.77;14.23;;;6.10;99.90;;;;;;5004313;28;20337;-77
2022/05/02 03:28:05;;;;;;;20.83;15.07;;;6.10;99.90;;;;;;5001197;28;20051;-77
2022/05/02 03:30:30;;;;;;;20.33;15.23;;;6.00;99.90;;;;;;4982737;28;20117;-77
2022/05/02 03:32:56;;;;;;;23.58;16.40;;;5.90;99.90;;;;;;4997721;28;20061;-77
2022/05/02 03:35:21;;;;;;;31.10;17.95;;;5.80;99.90;;;;;;4997054;28;20037;-77
2022/05/02 03:37:47;;;;;;;21.40;16.23;;;5.70;99.90;;;;;;5002378;28;20034;-77
2022/05/02 03:40:12;;;;;;;24.80;17.42;;;5.70;99.90;;;;;;4982276;28;20030;-77
2022/05/02 03:42:38;;;;;;;22.05;16.75;;;5.90;99.90;;;;;;5002488;28;20037;-77
2022/05/02 03:45:05;;;;;;;21.85;15.80;;;5.90;99.90;;;;;;5002984;28;20054;-77
2022/05/02 03:47:31;;;;;;;25.00;17.25;;;5.80;99.90;;;;;;5000063;28;20030;-78
2022/05/02 03:49:56;;;;;;;18.45;13.55;;;5.70;99.90;;;;;;4970640;28;20030;-78
2022/05/02 03:52:22;;;;;;;20.77;16.02;;;5.70;99.90;;;;;;4998439;28;20161;-78
2022/05/02 03:54:47;;;;;;;25.02;16.45;;;5.90;99.90;;;;;;4988607;28;20446;-78
2022/05/02 03:57:13;;;;;;;22.63;16.08;;;5.90;99.90;;;;;;4987370;28;20034;-78
2022/05/02 03:59:38;;;;;;;21.38;15.98;;;5.80;99.90;;;;;;4999360;28;20079;-78
2022/05/02 04:02:04;;;;;;;23.27;16.98;;;5.90;99.90;;;;;;4998116;28;20030;-78
2022/05/02 04:04:29;;;;;;;26.58;20.45;;;5.80;99.90;;;;;;4983654;28;20030;-78
2022/05/02 04:06:56;;;;;;;24.55;16.58;;;5.70;99.90;;;;;;4989027;28;20133;-78
2022/05/02 04:09:22;;;;;;;33.13;17.90;;;5.70;99.90;;;;;;4968481;28;20030;-78
2022/05/02 04:11:47;;;;;;;23.83;18.20;;;5.70;99.90;;;;;;4998952;28;20025;-78
2022/05/02 04:14:13;;;;;;;16.15;12.05;;;5.80;99.90;;;;;;4998308;28;20049;-78
2022/05/02 04:16:38;;;;;;;19.65;13.27;;;5.90;99.90;;;;;;5012976;28;20045;-78
2022/05/02 04:19:04;;;;;;;22.95;17.05;;;6.00;99.90;;;;;;4985752;28;20060;-78
2022/05/02 04:21:29;;;;;;;22.52;17.13;;;6.00;99.90;;;;;;4997914;28;20033;-78
2022/05/02 04:23:55;;;;;;;18.15;13.43;;;6.00;99.90;;;;;;4999357;28;20041;-78
2022/05/02 04:26:21;;;;;;;17.92;13.27;;;6.00;99.90;;;;;;4997009;28;20035;-78
2022/05/02 04:28:46;;;;;;;25.92;16.65;;;6.00;99.90;;;;;;4988539;28;20037;-78
2022/05/02 04:31:12;;;;;;;19.92;13.65;;;6.00;99.90;;;;;;5002029;28;20053;-78
2022/05/02 04:33:39;;;;;;;21.30;15.50;;;6.00;99.90;;;;;;5001066;28;20130;-78
2022/05/02 04:36:05;;;;;;;24.10;17.30;;;6.20;99.90;;;;;;4999509;28;20038;-78
2022/05/02 04:38:31;;;;;;;24.08;17.70;;;6.10;99.90;;;;;;4993511;28;20034;-78
2022/05/02 04:40:57;;;;;;;27.40;18.17;;;6.10;99.90;;;;;;5000082;28;20512;-78
2022/05/02 04:43:22;;;;;;;25.42;18.73;;;6.00;99.90;;;;;;4998193;28;20035;-78
2022/05/02 04:45:48;;;;;;;26.35;19.67;;;6.10;99.90;;;;;;4983156;28;20117;-78
2022/05/02 04:48:13;;;;;;;30.75;21.15;;;6.10;99.90;;;;;;4997801;28;20489;-78
2022/05/02 04:50:39;;;;;;;28.10;20.35;;;6.20;99.90;;;;;;5003236;28;20022;-78
2022/05/02 04:53:04;;;;;;;28.50;19.92;;;6.30;99.90;;;;;;4999881;28;20038;-78
2022/05/02 04:55:30;;;;;;;20.50;14.60;;;6.20;99.90;;;;;;4999743;28;20026;-78
2022/05/02 04:57:56;;;;;;;25.38;19.33;;;6.30;99.90;;;;;;4999212;28;20494;-78
2022/05/02 05:00:21;;;;;;;22.88;15.25;;;6.40;99.90;;;;;;4984402;28;20103;-78
2022/05/02 05:02:47;;;;;;;24.52;17.52;;;6.40;99.90;;;;;;4997340;28;20133;-79
2022/05/02 05:05:12;;;;;;;25.42;18.13;;;6.40;99.90;;;;;;4998477;28;20453;-78
2022/05/02 05:07:38;;;;;;;29.65;19.20;;;6.60;99.90;;;;;;4994519;28;20026;-77
2022/05/02 05:10:06;;;;;;;27.20;19.67;;;6.60;99.90;;;;;;4995446;28;20031;-77
2022/05/02 05:12:47;;;;;;;26.60;17.60;;;6.60;99.90;;;;;;4968876;28;20096;-77
2022/05/02 05:18:05;;;;;;;26.50;19.58;;;6.70;99.90;;;;;;4994945;28;20037;-75
2022/05/02 05:20:37;;;;;;;18.73;12.43;;;6.70;99.90;;;;;;4992013;28;20109;-75
2022/05/02 05:23:21;;;;;;;16.15;12.18;;;6.80;99.90;;;;;;4992029;28;20053;-75
2022/05/02 05:26:17;;;;;;;17.10;13.95;;;6.90;99.90;;;;;;4994861;28;20026;-75
2022/05/02 05:28:56;;;;;;;23.40;17.50;;;6.90;99.90;;;;;;4999207;28;20032;-76
2022/05/02 05:31:40;;;;;;;19.05;13.88;;;6.90;99.90;;;;;;4995564;28;20034;-76
2022/05/02 05:34:50;;;;;;;23.23;15.40;;;7.00;99.90;;;;;;5008109;28;20512;-75
2022/05/02 05:37:51;;;;;;;19.48;14.52;;;7.10;99.90;;;;;;4966166;28;20073;-75
2022/05/02 05:40:21;;;;;;;22.42;17.23;;;7.20;99.90;;;;;;4959744;28;20577;-75
2022/05/02 05:42:50;;;;;;;21.08;16.00;;;7.30;99.90;;;;;;4980453;28;20038;-75
2022/05/02 05:45:27;;;;;;;23.73;16.35;;;7.30;99.90;;;;;;4990377;28;20506;-75
2022/05/02 05:48:27;;;;;;;27.08;18.58;;;7.40;99.90;;;;;;4997070;28;20398;-74
2022/05/02 05:51:12;;;;;;;18.48;13.63;;;7.50;99.90;;;;;;5006822;28;20030;-77
2022/05/02 05:53:40;;;;;;;27.40;18.80;;;7.50;99.90;;;;;;4992895;28;20103;-75
2022/05/02 05:56:06;;;;;;;26.42;19.85;;;7.60;99.90;;;;;;4997739;28;20037;-77
2022/05/02 05:58:54;;;;;;;27.13;19.60;;;7.60;99.90;;;;;;4994756;28;20035;-77
2022/05/02 06:01:29;;;;;;;12.65;10.77;;;7.70;99.90;;;;;;4996474;28;20069;-77
2022/05/02 06:04:07;;;;;;;30.73;19.43;;;7.90;99.90;;;;;;4976773;28;20026;-77
2022/05/02 06:06:34;;;;;;;24.50;19.08;;;7.90;99.90;;;;;;4940841;28;20034;-77
2022/05/02 06:09:00;;;;;;;27.88;20.05;;;7.90;99.90;;;;;;4993619;28;20042;-77
2022/05/02 06:11:26;;;;;;;27.98;19.17;;;8.00;99.90;;;;;;4965500;28;20476;-77
2022/05/02 06:13:53;;;;;;;25.48;19.45;;;8.10;99.90;;;;;;4990875;28;20030;-77
2022/05/02 06:19:08;;;;;;;29.23;18.50;;;8.20;99.90;;;;;;4991098;28;20072;-77
2022/05/02 06:21:37;;;;;;;24.80;18.70;;;8.30;99.90;;;;;;4979096;28;20042;-77
2022/05/02 06:24:04;;;;;;;32.30;20.80;;;8.40;99.90;;;;;;4994972;28;20035;-77
2022/05/02 06:26:30;;;;;;;24.40;18.10;;;8.50;99.90;;;;;;4978877;28;20118;-77
2022/05/02 06:28:55;;;;;;;25.30;16.98;;;8.60;99.90;;;;;;4984586;28;20209;-77
2022/05/02 06:31:29;;;;;;;21.83;16.98;;;8.90;99.90;;;;;;4987700;28;20040;-77
2022/05/02 06:33:57;;;;;;;21.80;16.10;;;9.10;99.90;;;;;;4983898;28;20069;-77
2022/05/02 06:36:33;;;;;;;22.75;18.60;;;9.40;99.90;;;;;;4977049;28;20082;-76
2022/05/02 06:39:35;;;;;;;16.35;10.98;;;9.70;99.90;;;;;;4992435;28;20178;-77
2022/05/02 06:42:24;;;;;;;21.52;14.75;;;9.90;99.90;;;;;;4995079;28;20057;-77
2022/05/02 06:45:01;;;;;;;19.48;15.73;;;10.20;99.90;;;;;;4996133;28;20116;-78
2022/05/02 06:47:38;;;;;;;22.75;14.95;;;10.40;99.90;;;;;;5010928;28;20034;-77
2022/05/02 06:50:05;;;;;;;17.42;15.15;;;10.80;99.90;;;;;;4995927;28;20026;-77
2022/05/02 06:52:32;;;;;;;20.13;14.20;;;11.00;99.90;;;;;;4990273;28;20049;-77
2022/05/02 06:55:19;;;;;;;22.67;15.07;;;11.30;99.90;;;;;;4991985;28;20041;-77
2022/05/02 06:58:14;;;;;;;17.52;14.20;;;11.40;99.90;;;;;;4993511;28;20034;-77
2022/05/02 07:00:44;;;;;;;18.27;13.98;;;11.60;99.90;;;;;;5010558;28;20486;-77
2022/05/02 07:03:26;;;;;;;17.83;12.77;;;11.80;99.90;;;;;;4966952;28;20390;-77
2022/05/02 07:06:08;;;;;;;19.85;13.82;;;11.90;99.90;;;;;;4992002;28;20033;-77
2022/05/02 07:08:56;;;;;;;19.38;14.02;;;12.10;99.90;;;;;;4970855;28;20039;-78
2022/05/02 07:11:21;;;;;;;14.35;11.82;;;12.30;99.90;;;;;;4963363;28;20053;-77
2022/05/02 07:14:05;;;;;;;14.73;11.40;;;12.40;99.90;;;;;;4976716;28;20038;-77
2022/05/02 07:16:32;;;;;;;20.73;12.75;;;12.60;99.90;;;;;;4998739;28;20072;-77
2022/05/02 07:19:16;;;;;;;16.40;11.68;;;12.70;99.90;;;;;;4992197;28;20040;-77
2022/05/02 07:22:02;;;;;;;17.10;13.68;;;12.70;99.90;;;;;;4993854;28;20038;-77
2022/05/02 07:24:47;;;;;;;19.67;13.55;;;12.90;99.90;;;;;;4979569;28;20494;-77
2022/05/02 07:27:41;;;;;;;19.17;14.63;;;13.00;99.90;;;;;;4993917;28;20042;-77
2022/05/02 07:30:07;;;;;;;16.08;13.52;;;13.20;99.90;;;;;;5008386;28;20089;-78
2022/05/02 07:32:32;;;;;;;19.52;14.55;;;13.30;99.90;;;;;;4990042;28;20034;-77
2022/05/02 07:34:59;;;;;;;17.77;13.55;;;13.60;99.90;;;;;;4993426;28;20106;-77
2022/05/02 07:37:25;;;;;;;22.48;13.85;;;13.70;99.90;;;;;;4979204;28;20038;-78
2022/05/02 07:39:51;;;;;;;15.95;12.88;;;13.90;99.90;;;;;;4976442;28;20061;-77
2022/05/02 07:42:18;;;;;;;20.00;15.13;;;14.10;99.90;;;;;;4971983;28;20664;-78
2022/05/02 07:44:44;;;;;;;18.10;14.32;;;14.30;99.90;;;;;;4993722;28;20029;-78
2022/05/02 07:47:11;;;;;;;22.00;13.30;;;14.40;99.90;;;;;;4964797;28;20054;-78
2022/05/02 07:49:37;;;;;;;18.33;12.98;;;14.50;99.90;;;;;;4972796;28;20115;-78
2022/05/02 07:52:03;;;;;;;20.17;14.18;;;14.60;99.90;;;;;;4995210;28;20113;-78
2022/05/02 07:54:29;;;;;;;18.55;12.57;;;14.80;99.90;;;;;;4995017;28;20038;-78
2022/05/02 07:56:57;;;;;;;18.33;13.18;;;14.90;99.90;;;;;;4993904;28;20030;-78
2022/05/02 07:59:25;;;;;;;22.23;13.60;;;15.00;99.90;;;;;;4994366;28;20511;-78
2022/05/02 08:01:51;;;;;;;18.35;12.55;;;15.20;99.90;;;;;;4979738;28;20026;-78
2022/05/02 08:04:16;;;;;;;17.10;13.15;;;15.30;99.90;;;;;;4992054;28;20050;-78
2022/05/02 08:07:10;;;;;;;22.45;12.57;;;15.40;99.90;;;;;;4992600;28;20023;-78
2022/05/02 08:09:45;;;;;;;21.77;12.52;;;15.60;99.90;;;;;;4993748;28;20108;-78
2022/05/02 08:12:39;;;;;;;18.67;13.55;;;15.70;99.90;;;;;;4991117;28;20049;-78
2022/05/02 08:15:24;;;;;;;17.08;12.55;;;15.90;99.90;;;;;;5011865;28;20041;-78
2022/05/02 08:18:09;;;;;;;19.52;13.70;;;16.00;99.90;;;;;;4998612;28;20497;-78
2022/05/02 08:20:54;;;;;;;17.60;12.70;;;16.30;99.90;;;;;;4992721;28;20034;-78
2022/05/02 08:29:47;;;;;;;18.20;12.25;;;17.20;97.50;;;;;;4999442;28;20088;-78
2022/05/02 08:32:22;;;;;;;18.40;11.25;;;17.30;97.50;;;;;;4998825;28;20393;-79
2022/05/02 08:35:07;;;;;;;13.35;10.82;;;17.60;96.40;;;;;;4996899;28;20044;-78
2022/05/02 08:37:44;;;;;;;18.40;12.85;;;17.70;94.20;;;;;;5011286;28;20404;-78
2022/05/02 08:40:25;;;;;;;17.30;10.98;;;17.70;95.20;;;;;;4983030;28;20068;-78
2022/05/02 08:43:12;;;;;;;12.52;11.13;;;17.90;94.90;;;;;;4996018;28;20034;-79
2022/05/02 08:45:53;;;;;;;13.55;11.57;;;18.00;94.00;;;;;;4995258;28;20030;-79
2022/05/02 08:48:22;;;;;;;17.58;11.85;;;18.10;93.60;;;;;;4977744;28;20039;-78
2022/05/02 08:51:26;;;;;;;16.25;11.52;;;18.10;93.80;;;;;;5001225;28;20444;-79
2022/05/02 08:54:10;;;;;;;15.80;10.77;;;18.30;92.80;;;;;;5008859;28;20125;-79
2022/05/02 08:56:43;;;;;;;14.23;10.10;;;18.50;92.10;;;;;;5004274;28;20041;-79
2022/05/02 08:59:27;;;;;;;16.55;10.90;;;18.50;92.20;;;;;;4995758;28;20535;-79
2022/05/02 09:02:27;;;;;;;15.93;12.00;;;18.80;91.20;;;;;;4995168;28;20033;-79
2022/05/02 09:05:22;;;;;;;17.13;11.02;;;18.80;90.00;;;;;;4984185;28;20109;-79
2022/05/02 09:08:21;;;;;;;23.42;12.55;;;19.00;87.90;;;;;;5006230;28;20036;-79
2022/05/02 09:11:31;;;;;;;15.23;10.55;;;19.10;88.80;;;;;;4995419;28;20065;-79
2022/05/02 09:14:14;;;;;;;15.55;11.38;;;19.20;87.10;;;;;;4997984;28;20612;-79
2022/05/02 09:17:17;;;;;;;14.88;10.85;;;19.20;83.10;;;;;;4992045;28;20112;-79
2022/05/02 09:20:00;;;;;;;12.82;10.98;;;19.40;83.90;;;;;;4992630;28;20037;-79
2022/05/02 09:22:54;;;;;;;12.90;9.13;;;19.30;81.80;;;;;;4996795;28;20501;-78
2022/05/02 09:25:57;;;;;;;12.85;9.52;;;19.40;84.00;;;;;;5008109;28;20052;-79
2022/05/02 09:28:29;;;;;;;14.32;8.80;;;19.70;79.80;;;;;;4977998;28;20048;-79
2022/05/02 09:31:32;;;;;;;13.88;10.27;;;19.60;79.40;;;;;;4994064;28;20124;-79
2022/05/02 09:34:23;;;;;;;18.50;9.20;;;19.70;78.40;;;;;;4996635;28;20481;-80
2022/05/02 09:37:02;;;;;;;11.32;7.75;;;19.90;79.00;;;;;;4981451;28;20052;-79
2022/05/02 09:39:43;;;;;;;12.52;8.50;;;19.80;77.40;;;;;;4997330;28;20121;-79
2022/05/02 09:42:10;;;;;;;12.93;9.13;;;19.90;75.90;;;;;;5008358;28;20049;-79
2022/05/02 09:51:05;;;;;;;12.48;9.07;;;20.30;77.40;;;;;;4997956;28;20096;-80
2022/05/02 09:54:01;;;;;;;11.88;8.88;;;20.60;74.70;;;;;;5009029;28;20034;-80
2022/05/02 09:56:39;;;;;;;11.15;7.90;;;20.60;74.50;;;;;;4994618;28;20749;-80
2022/05/02 09:59:09;;;;;;;13.23;8.80;;;20.90;72.30;;;;;;4983066;28;20030;-80
2022/05/02 10:01:34;;;;;;;12.80;8.85;;;20.70;74.90;;;;;;4997779;28;20486;-80
2022/05/02 10:04:18;;;;;;;15.15;8.50;;;20.80;73.60;;;;;;4980687;28;20034;-80
2022/05/02 10:06:47;;;;;;;13.45;8.43;;;21.00;73.10;;;;;;4992110;28;20031;-80
2022/05/02 10:09:36;;;;;;;14.90;8.98;;;21.10;71.70;;;;;;4991215;28;20034;-81
2022/05/02 10:12:20;;;;;;;14.75;8.50;;;21.20;71.90;;;;;;4997824;28;20107;-80
2022/05/02 10:15:22;;;;;;;16.55;8.07;;;21.20;72.30;;;;;;4986799;28;20040;-80
2022/05/02 10:18:01;;;;;;;10.00;7.78;;;21.10;71.20;;;;;;5010873;28;20580;-81
2022/05/02 10:20:57;;;;;;;11.60;8.70;;;21.30;69.50;;;;;;4994551;28;20048;-80
2022/05/02 10:23:35;;;;;;;11.07;8.07;;;21.60;68.00;;;;;;5002278;28;20023;-81
2022/05/02 10:26:18;;;;;;;14.45;7.97;;;21.50;67.20;;;;;;4990588;28;20030;-81
2022/05/02 10:28:57;;;;;;;10.23;7.18;;;21.70;68.90;;;;;;5011046;28;20034;-81
2022/05/02 10:31:27;;;;;;;9.43;7.68;;;21.60;70.10;;;;;;4993505;28;20133;-81
2022/05/02 10:33:53;;;;;;;10.35;7.00;;;21.90;69.10;;;;;;4980139;28;20150;-81
2022/05/02 10:36:20;;;;;;;17.33;8.05;;;22.00;70.50;;;;;;4988708;28;20042;-81
2022/05/02 10:39:02;;;;;;;13.20;8.10;;;22.20;68.40;;;;;;4978089;28;20038;-81
2022/05/02 10:42:01;;;;;;;10.40;8.00;;;22.20;68.40;;;;;;4980068;28;20387;-82
2022/05/02 10:44:28;;;;;;;12.43;7.53;;;22.40;64.60;;;;;;4975467;28;20034;-81
2022/05/02 10:47:01;;;;;;;9.30;7.28;;;22.50;67.30;;;;;;4981052;28;20041;-81
2022/05/02 10:49:48;;;;;;;12.45;8.85;;;22.60;66.70;;;;;;4996402;28;20034;-81
2022/05/02 10:52:35;;;;;;;13.30;8.38;;;22.60;66.30;;;;;;5010817;28;20509;-82
2022/05/02 10:55:07;;;;;;;10.50;7.03;;;22.70;64.60;;;;;;4995887;28;20116;-82
2022/05/02 10:57:55;;;;;;;9.45;5.90;;;22.80;66.70;;;;;;4974494;28;20054;-82
2022/05/02 11:00:21;;;;;;;9.30;8.20;;;23.40;66.60;;;;;;4977987;28;20742;-82
2022/05/02 11:03:15;;;;;;;9.90;7.07;;;23.10;62.30;;;;;;4992964;28;20682;-82
2022/05/02 11:06:09;;;;;;;11.05;8.10;;;23.10;63.40;;;;;;5011138;28;20030;-82
2022/05/02 11:08:44;;;;;;;12.88;7.55;;;23.20;63.70;;;;;;5010073;28;20442;-82
2022/05/02 11:11:12;;;;;;;14.48;6.93;;;23.30;64.10;;;;;;5009443;28;20117;-81
2022/05/02 11:13:49;;;;;;;12.52;8.13;;;23.40;65.40;;;;;;4978566;28;20049;-82
2022/05/02 11:16:27;;;;;;;7.88;6.80;;;23.60;62.00;;;;;;4977509;28;20081;-81
2022/05/02 11:21:59;;;;;;;11.47;7.77;;;23.70;59.70;;;;;;5007227;28;20057;-81
2022/05/02 11:24:30;;;;;;;9.20;7.90;;;23.70;60.10;;;;;;4992096;28;20031;-81
2022/05/02 11:27:18;;;;;;;7.22;6.28;;;23.80;60.20;;;;;;4994516;28;20034;-81
2022/05/02 11:29:53;;;;;;;6.55;5.55;;;24.00;61.70;;;;;;5000359;28;20034;-81
2022/05/02 11:32:28;;;;;;;8.23;7.35;;;24.10;61.80;;;;;;4995060;28;20031;-81
2022/05/02 11:35:21;;;;;;;9.15;6.45;;;24.30;60.40;;;;;;4994508;28;20034;-81
2022/05/02 11:37:54;;;;;;;7.07;4.22;;;24.50;60.50;;;;;;4992567;28;20440;-80
2022/05/02 11:40:32;;;;;;;7.05;5.50;;;25.10;61.30;;;;;;4977070;28;20133;-81
2022/05/02 11:42:58;;;;;;;9.30;7.50;;;24.90;61.50;;;;;;4999062;28;20042;-81
2022/05/02 11:45:33;;;;;;;8.93;5.97;;;24.90;60.70;;;;;;4977843;28;20397;-81
2022/05/02 11:48:18;;;;;;;8.55;6.82;;;25.00;59.30;;;;;;4980121;28;20735;-80
2022/05/02 11:50:46;;;;;;;11.25;7.40;;;25.30;59.60;;;;;;5000881;28;20122;-80
2022/05/02 11:53:14;;;;;;;11.77;6.57;;;25.40;59.30;;;;;;4993180;28;20473;-80
2022/05/02 11:55:43;;;;;;;9.82;7.20;;;25.50;57.90;;;;;;4991800;28;20060;-80
2022/05/02 11:58:24;;;;;;;7.85;5.68;;;25.60;56.70;;;;;;4982771;28;20073;-78
2022/05/02 12:00:58;;;;;;;13.95;7.80;;;25.70;58.50;;;;;;4994842;28;20050;-79
2022/05/02 12:03:26;;;;;;;9.75;7.32;;;26.00;56.50;;;;;;4988813;28;20043;-80
2022/05/02 12:05:55;;;;;;;10.60;7.82;;;26.20;53.80;;;;;;4982666;28;20034;-79
2022/05/02 12:08:32;;;;;;;8.88;7.07;;;26.00;54.40;;;;;;4983134;28;20042;-79
2022/05/02 12:11:08;;;;;;;8.27;6.00;;;25.90;54.40;;;;;;4997694;28;20062;-80
2022/05/02 12:13:35;;;;;;;12.93;7.85;;;25.70;54.70;;;;;;4986887;28;20085;-79
2022/05/02 12:16:07;;;;;;;8.65;5.30;;;26.00;55.50;;;;;;4995883;28;20042;-77
2022/05/02 12:18:46;;;;;;;10.23;7.40;;;26.00;54.90;;;;;;4996124;28;20030;-79
2022/05/02 12:21:31;;;;;;;10.32;7.30;;;26.00;53.20;;;;;;5012023;28;20030;-79
2022/05/02 12:23:58;;;;;;;9.43;7.88;;;25.90;53.00;;;;;;4987564;28;20022;-79
2022/05/02 12:26:23;;;;;;;9.40;6.93;;;26.00;53.00;;;;;;4997864;28;20026;-79
2022/05/02 12:28:53;;;;;;;7.50;4.25;;;26.20;53.10;;;;;;4997425;28;20492;-80
2022/05/02 12:31:29;;;;;;;10.75;7.25;;;26.10;54.90;;;;;;4981511;28;20090;-79
2022/05/02 12:34:10;;;;;;;8.57;5.40;;;26.30;53.50;;;;;;5003438;28;20513;-79
2022/05/02 12:36:44;;;;;;;8.15;5.47;;;26.40;53.20;;;;;;4993185;28;20038;-79
2022/05/02 12:39:23;;;;;;;10.75;7.72;;;26.60;54.40;;;;;;4995255;28;20125;-79
2022/05/02 12:41:52;;;;;;;8.80;6.25;;;27.00;51.90;;;;;;4991338;28;20427;-79
2022/05/02 12:44:18;;;;;;;7.95;6.75;;;27.20;52.70;;;;;;4998431;28;20069;-79
2022/05/02 12:46:45;;;;;;;9.80;7.78;;;27.60;52.80;;;;;;5011009;28;20046;-79
2022/05/02 12:49:28;;;;;;;9.30;6.95;;;27.60;51.90;;;;;;4997903;28;20037;-79
2022/05/02 12:51:55;;;;;;;7.22;6.47;;;27.60;49.10;;;;;;4999464;28;20042;-79
2022/05/02 12:54:21;;;;;;;7.50;5.05;;;27.60;52.00;;;;;;4995999;28;20038;-77
2022/05/02 13:02:43;;;;;;;11.73;4.82;;;28.30;46.90;;;;;;4995879;28;20053;-77
2022/05/02 13:05:13;;;;;;;6.35;5.15;;;28.10;49.10;;;;;;4993080;28;20093;-77
2022/05/02 13:07:46;;;;;;;8.27;6.85;;;28.20;49.40;;;;;;4976842;28;20506;-77
2022/05/02 13:10:41;;;;;;;11.45;6.55;;;28.30;47.50;;;;;;4999864;28;20141;-77
2022/05/02 13:13:11;;;;;;;5.80;4.13;;;28.50;48.20;;;;;;4994073;28;20378;-79
2022/05/02 13:15:36;;;;;;;5.63;5.03;;;28.70;49.80;;;;;;4991399;28;20026;-78
2022/05/02 13:18:10;;;;;;;9.20;4.53;;;28.70;48.30;;;;;;4996487;28;20085;-79
2022/05/02 13:20:36;;;;;;;8.07;5.53;;;29.00;48.70;;;;;;4975825;28;20035;-77
2022/05/02 13:23:03;;;;;;;8.38;5.28;;;29.30;48.60;;;;;;4992105;28;20556;-77
2022/05/02 13:26:05;;;;;;;7.28;5.68;;;29.60;49.10;;;;;;4995710;28;20101;-78
2022/05/02 13:29:08;;;;;;;6.43;5.82;;;29.90;48.30;;;;;;4995236;28;20393;-78
2022/05/02 13:31:56;;;;;;;6.20;5.60;;;30.20;47.70;;;;;;5008204;28;20088;-78
2022/05/02 13:34:24;;;;;;;10.57;5.47;;;30.30;46.00;;;;;;5008456;28;20106;-78
2022/05/02 13:36:50;;;;;;;7.75;6.70;;;30.30;45.60;;;;;;4993409;28;20031;-78
2022/05/02 13:39:22;;;;;;;9.02;6.30;;;30.30;44.60;;;;;;4989086;28;20104;-77